Time;durP1;ratioP1;P1;durP2;ratioP2;P2;SDS_P1;SDS_P2;PMS_P1;PMS_P2;Temp;Humidity;BMP_temperature;BMP_pressure;BME280_temperature;BME280_humidity;BME280_pressure;Samples;Min_cycle;Max_cycle;Signal;HPM_P1;HPM_P2
2021/08/10 00:00:08;;;;;;;21.75;16.42;;;23.70;85.70;;;;;;5037152;28;20029;-86
2021/08/10 00:02:34;;;;;;;18.85;15.90;;;23.70;85.50;;;;;;5020444;28;20079;-86
2021/08/10 00:05:00;;;;;;;20.48;17.50;;;23.60;85.40;;;;;;5038005;28;20026;-88
2021/08/10 00:07:26;;;;;;;19.83;17.30;;;23.60;85.80;;;;;;5007479;28;20034;-86
2021/08/10 00:09:52;;;;;;;22.27;17.60;;;23.60;85.80;;;;;;5037387;28;20024;-86
2021/08/10 00:12:18;;;;;;;19.70;16.33;;;23.60;86.00;;;;;;5035241;28;20026;-86
2021/08/10 00:14:43;;;;;;;19.60;17.60;;;23.60;86.10;;;;;;5038034;28;20042;-89
2021/08/10 00:17:09;;;;;;;21.00;17.33;;;23.60;86.20;;;;;;5018653;28;20052;-86
2021/08/10 00:19:35;;;;;;;20.83;16.92;;;23.50;86.30;;;;;;5035489;28;20336;-86
2021/08/10 00:22:01;;;;;;;21.95;17.17;;;23.50;86.50;;;;;;5035685;28;20144;-88
2021/08/10 00:24:27;;;;;;;19.30;17.13;;;23.50;86.80;;;;;;5034973;28;20390;-87
2021/08/10 00:26:53;;;;;;;19.60;17.17;;;23.40;86.90;;;;;;5035152;28;20141;-86
2021/08/10 00:29:19;;;;;;;21.00;17.33;;;23.40;87.20;;;;;;5034844;28;20014;-86
2021/08/10 00:31:45;;;;;;;22.58;18.00;;;23.40;87.30;;;;;;5034312;28;20076;-87
2021/08/10 00:34:10;;;;;;;20.98;16.88;;;23.40;87.50;;;;;;5035202;28;20017;-87
2021/08/10 00:36:37;;;;;;;23.92;18.23;;;23.40;87.70;;;;;;5035269;28;20029;-88
2021/08/10 00:39:06;;;;;;;18.92;16.65;;;23.30;87.90;;;;;;5015908;28;20018;-89
2021/08/10 00:41:32;;;;;;;21.58;18.13;;;23.30;88.10;;;;;;5033388;28;20029;-88
2021/08/10 00:43:58;;;;;;;22.08;18.67;;;23.20;88.60;;;;;;5023314;28;20036;-85
2021/08/10 00:46:23;;;;;;;21.98;18.88;;;23.20;88.60;;;;;;5026783;28;20037;-89
2021/08/10 00:48:50;;;;;;;23.48;18.20;;;23.20;88.70;;;;;;5026441;28;20029;-87
2021/08/10 00:51:16;;;;;;;21.10;17.63;;;23.20;88.60;;;;;;5009872;28;20037;-87
2021/08/10 00:53:43;;;;;;;24.10;18.10;;;23.30;88.60;;;;;;5012705;28;20030;-89
2021/08/10 00:56:09;;;;;;;19.88;17.77;;;23.20;88.60;;;;;;5034349;28;20100;-86
2021/08/10 00:58:36;;;;;;;22.63;17.88;;;23.20;88.80;;;;;;5034353;28;20570;-87
2021/08/10 01:01:02;;;;;;;26.42;19.77;;;23.20;89.20;;;;;;5015003;28;20034;-87
2021/08/10 01:03:28;;;;;;;25.27;18.40;;;23.10;89.40;;;;;;5015674;28;20074;-87
2021/08/10 01:05:54;;;;;;;25.67;18.58;;;23.10;89.70;;;;;;5026660;28;20047;-87
2021/08/10 01:08:44;;;;;;;18.80;17.00;;;23.10;89.80;;;;;;5033150;28;20319;-86
2021/08/10 01:11:16;;;;;;;31.38;19.15;;;23.10;89.90;;;;;;5034743;28;20051;-87
2021/08/10 01:13:51;;;;;;;20.48;18.27;;;23.00;90.00;;;;;;5034033;28;20137;-86
2021/08/10 01:16:32;;;;;;;19.73;17.85;;;23.00;90.00;;;;;;5037400;28;20033;-87
2021/08/10 01:19:27;;;;;;;24.88;19.10;;;23.00;90.20;;;;;;5024689;28;20021;-87
2021/08/10 01:21:56;;;;;;;24.27;19.95;;;23.00;90.20;;;;;;5017671;28;20390;-86
2021/08/10 01:24:28;;;;;;;23.30;18.55;;;23.00;90.30;;;;;;5024875;28;20032;-86
2021/08/10 01:27:13;;;;;;;23.23;18.88;;;23.00;90.30;;;;;;5014306;28;20026;-85
2021/08/10 01:29:50;;;;;;;22.42;18.90;;;22.90;90.40;;;;;;5014164;28;20029;-87
2021/08/10 01:32:16;;;;;;;21.00;18.52;;;22.90;90.40;;;;;;4996361;28;20030;-87
2021/08/10 01:34:44;;;;;;;28.83;19.75;;;22.90;90.60;;;;;;5024374;28;20129;-86
2021/08/10 01:37:17;;;;;;;27.23;19.67;;;22.80;90.70;;;;;;5017725;28;20037;-87
2021/08/10 01:39:45;;;;;;;24.85;19.10;;;22.80;90.70;;;;;;5014543;28;20026;-86
2021/08/10 01:42:12;;;;;;;24.23;19.75;;;22.80;90.80;;;;;;5014560;28;20460;-86
2021/08/10 01:44:39;;;;;;;29.90;22.63;;;22.80;90.90;;;;;;5014181;28;20569;-88
2021/08/10 01:47:07;;;;;;;;;;;22.80;91.00;;;;;;5028443;28;20033;-86
2021/08/10 01:49:35;;;;;;;25.73;20.88;;;22.70;90.60;;;;;;5014178;28;19896;-88
2021/08/10 01:52:02;;;;;;;26.95;21.75;;;22.70;91.10;;;;;;5016965;28;20018;-86
2021/08/10 01:54:28;;;;;;;24.17;21.02;;;22.70;91.20;;;;;;5038846;28;20048;-87
2021/08/10 01:56:55;;;;;;;26.20;22.55;;;22.70;91.20;;;;;;5038207;28;20429;-88
2021/08/10 01:59:22;;;;;;;23.23;20.97;;;22.70;91.20;;;;;;5035416;28;20036;-88
2021/08/10 02:01:49;;;;;;;24.75;21.45;;;22.70;91.30;;;;;;5018667;28;20045;-90
2021/08/10 02:04:18;;;;;;;27.60;21.60;;;22.60;91.30;;;;;;5020478;28;20388;-89
2021/08/10 02:06:46;;;;;;;30.60;23.42;;;22.60;91.40;;;;;;5026357;28;20099;-92
2021/08/10 02:09:14;;;;;;;30.25;22.27;;;22.60;91.50;;;;;;5004121;28;20029;-91
2021/08/10 02:11:40;;;;;;;24.52;21.88;;;22.60;91.90;;;;;;5032217;28;20042;-89
2021/08/10 02:14:10;;;;;;;27.52;23.10;;;22.60;91.70;;;;;;5028868;28;20045;-89
2021/08/10 02:16:38;;;;;;;30.17;24.08;;;22.50;91.70;;;;;;5034431;28;20025;-89
2021/08/10 02:19:04;;;;;;;28.33;24.30;;;22.50;91.80;;;;;;5018311;28;20025;-86
2021/08/10 02:21:49;;;;;;;27.40;23.42;;;22.50;91.90;;;;;;5022610;28;20148;-88
2021/08/10 02:24:24;;;;;;;33.58;24.98;;;22.50;91.90;;;;;;5046371;28;20025;-87
2021/08/10 02:27:14;;;;;;;28.77;24.08;;;22.50;92.00;;;;;;5027760;28;20026;-88
2021/08/10 02:29:45;;;;;;;26.52;23.73;;;22.40;92.10;;;;;;5025569;28;20518;-88
2021/08/10 02:32:14;;;;;;;31.65;23.88;;;22.40;92.20;;;;;;5019803;28;20041;-88
2021/08/10 02:34:42;;;;;;;27.70;24.80;;;22.40;92.30;;;;;;5026774;28;20020;-87
2021/08/10 02:37:12;;;;;;;30.55;24.55;;;22.40;92.20;;;;;;5048711;28;20037;-89
2021/08/10 02:39:38;;;;;;;27.52;23.17;;;22.50;92.20;;;;;;5018574;28;20028;-88
2021/08/10 02:42:07;;;;;;;31.80;25.73;;;22.50;92.30;;;;;;5031601;28;20072;-89
2021/08/10 02:44:36;;;;;;;28.20;25.13;;;22.50;92.10;;;;;;5017524;28;20065;-87
2021/08/10 02:47:02;;;;;;;28.52;24.25;;;22.60;92.00;;;;;;5021303;28;20336;-87
2021/08/10 02:49:28;;;;;;;29.00;23.17;;;22.60;91.90;;;;;;5018287;28;20104;-89
2021/08/10 02:51:54;;;;;;;27.58;24.65;;;22.60;91.90;;;;;;4999373;28;20050;-87
2021/08/10 02:54:21;;;;;;;27.55;24.55;;;22.70;91.80;;;;;;5020541;28;20033;-87
2021/08/10 02:57:06;;;;;;;32.47;23.85;;;22.70;91.50;;;;;;5028192;28;20021;-86
2021/08/10 02:59:44;;;;;;;28.30;24.20;;;22.80;91.30;;;;;;5028938;28;20025;-87
2021/08/10 03:02:17;;;;;;;28.30;25.30;;;22.90;91.70;;;;;;5018075;28;20022;-88
2021/08/10 03:05:11;;;;;;;28.65;25.40;;;22.90;91.70;;;;;;5016034;28;20032;-87
2021/08/10 03:07:49;;;;;;;30.90;26.58;;;22.90;91.40;;;;;;5021741;28;20042;-85
2021/08/10 03:10:15;;;;;;;37.03;24.45;;;23.00;91.40;;;;;;5024237;28;20359;-86
2021/08/10 03:12:46;;;;;;;30.67;24.10;;;23.00;91.30;;;;;;5022771;28;20022;-87
2021/08/10 03:15:15;;;;;;;28.27;23.88;;;23.10;91.00;;;;;;5005312;28;20041;-86
2021/08/10 03:17:42;;;;;;;26.63;23.95;;;23.20;90.90;;;;;;5023105;28;20041;-87
2021/08/10 03:20:10;;;;;;;28.55;22.13;;;23.20;90.80;;;;;;5022043;28;20006;-86
2021/08/10 03:22:37;;;;;;;32.58;24.33;;;23.30;90.80;;;;;;5024742;28;20372;-85
2021/08/10 03:25:05;;;;;;;30.83;22.95;;;23.30;90.60;;;;;;5020477;28;20029;-85
2021/08/10 03:27:33;;;;;;;28.33;23.25;;;23.40;90.40;;;;;;5026429;28;20026;-86
2021/08/10 03:30:01;;;;;;;29.88;23.13;;;23.40;90.30;;;;;;5017388;28;20026;-87
2021/08/10 03:32:27;;;;;;;26.38;22.05;;;23.50;90.20;;;;;;5027149;28;20022;-87
2021/08/10 03:34:53;;;;;;;30.58;24.65;;;23.50;90.10;;;;;;5016047;28;20415;-89
2021/08/10 03:37:20;;;;;;;31.93;23.60;;;23.60;89.70;;;;;;5022574;28;20028;-88
2021/08/10 03:39:47;;;;;;;33.42;25.73;;;23.60;89.70;;;;;;5022953;28;20298;-87
2021/08/10 03:42:13;;;;;;;31.15;24.08;;;23.60;88.80;;;;;;5003356;28;20021;-85
2021/08/10 03:44:42;;;;;;;26.00;22.55;;;23.60;88.60;;;;;;5026066;28;20025;-87
2021/08/10 03:47:14;;;;;;;33.22;23.42;;;23.70;88.60;;;;;;5022039;28;20026;-87
2021/08/10 03:49:43;;;;;;;25.17;22.55;;;23.80;88.20;;;;;;5015710;28;20018;-85
2021/08/10 03:52:11;;;;;;;26.85;23.83;;;23.90;88.10;;;;;;5015664;28;20060;-86
2021/08/10 03:54:38;;;;;;;35.47;25.67;;;23.90;87.50;;;;;;5026525;28;20021;-86
2021/08/10 03:57:07;;;;;;;32.17;23.50;;;23.90;87.10;;;;;;5037958;28;20528;-86
2021/08/10 03:59:34;;;;;;;32.40;24.40;;;23.90;87.10;;;;;;5021050;28;20290;-87
2021/08/10 04:02:00;;;;;;;26.10;23.35;;;24.00;87.10;;;;;;5035250;28;20022;-85
2021/08/10 04:04:28;;;;;;;34.10;24.80;;;24.00;87.00;;;;;;5018559;28;20101;-84
2021/08/10 04:06:54;;;;;;;28.80;25.67;;;24.10;86.70;;;;;;5015603;28;20117;-85
2021/08/10 04:09:23;;;;;;;28.13;23.30;;;24.10;86.50;;;;;;5015615;28;20026;-87
2021/08/10 04:11:49;;;;;;;27.77;24.60;;;24.20;86.70;;;;;;5017015;28;20022;-86
2021/08/10 04:14:16;;;;;;;30.83;25.87;;;24.20;86.70;;;;;;5016230;28;20129;-86
2021/08/10 04:16:56;;;;;;;;;;;24.20;86.50;;;;;;5034189;28;20018;-86
2021/08/10 04:19:27;;;;;;;28.90;23.45;;;24.20;86.40;;;;;;5005210;28;20325;-84
2021/08/10 04:21:53;;;;;;;28.90;24.92;;;24.20;86.70;;;;;;5028100;28;20014;-84
2021/08/10 04:24:19;;;;;;;32.95;23.40;;;24.20;86.40;;;;;;5026268;28;20425;-86
2021/08/10 04:26:45;;;;;;;33.70;23.73;;;24.30;85.80;;;;;;5030499;28;20030;-85
2021/08/10 04:29:13;;;;;;;27.15;22.88;;;24.40;85.10;;;;;;5024412;28;20017;-83
2021/08/10 04:31:39;;;;;;;26.80;23.58;;;24.50;84.70;;;;;;5015708;28;20021;-86
2021/08/10 04:34:05;;;;;;;30.20;24.73;;;24.60;84.20;;;;;;5015263;28;20037;-84
2021/08/10 04:36:31;;;;;;;25.20;22.58;;;24.60;83.80;;;;;;5029172;28;20064;-86
2021/08/10 04:38:57;;;;;;;27.55;23.10;;;24.70;83.50;;;;;;5034586;28;20021;-86
2021/08/10 04:41:23;;;;;;;30.58;23.23;;;24.80;83.00;;;;;;5033932;28;20468;-86
2021/08/10 04:43:49;;;;;;;32.10;22.48;;;24.90;82.50;;;;;;5015838;28;20026;-86
2021/08/10 04:46:15;;;;;;;27.52;22.35;;;25.00;81.90;;;;;;5024732;28;20038;-86
2021/08/10 04:48:46;;;;;;;29.73;23.75;;;25.20;81.00;;;;;;5032491;28;20013;-90
2021/08/10 04:51:15;;;;;;;24.58;22.00;;;25.40;80.00;;;;;;5002918;28;20459;-87
2021/08/10 04:53:41;;;;;;;28.50;22.42;;;25.70;79.30;;;;;;5027156;28;20366;-87
2021/08/10 04:56:09;;;;;;;26.13;20.88;;;26.20;77.50;;;;;;5032096;28;20021;-86
2021/08/10 04:58:34;;;;;;;27.67;21.67;;;26.80;75.80;;;;;;5029419;28;20331;-87
2021/08/10 05:01:00;;;;;;;24.02;20.50;;;27.20;73.30;;;;;;5034521;28;20022;-92
2021/08/10 05:03:30;;;;;;;28.88;19.77;;;27.60;71.40;;;;;;5035645;28;20029;-90
2021/08/10 05:05:57;;;;;;;23.58;19.05;;;28.10;69.30;;;;;;5025994;28;20038;-90
2021/08/10 05:08:23;;;;;;;27.27;19.75;;;28.50;67.10;;;;;;4997609;28;20100;-88
2021/08/10 05:10:49;;;;;;;27.77;19.27;;;28.90;65.80;;;;;;5016623;28;20648;-88
2021/08/10 05:13:18;;;;;;;28.23;21.08;;;29.30;64.30;;;;;;5027042;28;20352;-91
2021/08/10 05:15:44;;;;;;;28.00;21.13;;;29.80;62.60;;;;;;5030430;28;20099;-89
2021/08/10 05:18:10;;;;;;;23.85;20.35;;;30.10;61.50;;;;;;5034527;28;20017;-90
2021/08/10 05:20:36;;;;;;;21.35;18.95;;;30.00;60.40;;;;;;5041452;28;20108;-89
2021/08/10 05:23:02;;;;;;;20.52;18.35;;;30.70;60.00;;;;;;5024220;28;20024;-89
2021/08/10 05:25:28;;;;;;;20.30;18.20;;;31.60;59.00;;;;;;5048683;28;20026;-87
2021/08/10 05:27:54;;;;;;;27.30;18.98;;;32.30;56.10;;;;;;5052686;28;20261;-87
2021/08/10 05:30:20;;;;;;;22.73;18.50;;;32.90;54.80;;;;;;5051424;28;20026;-88
2021/08/10 05:32:46;;;;;;;20.10;16.67;;;32.80;52.30;;;;;;5012349;28;20025;-91
2021/08/10 05:35:12;;;;;;;19.20;16.33;;;32.80;52.50;;;;;;5026933;28;20047;-88
2021/08/10 05:37:37;;;;;;;24.17;17.87;;;33.20;51.80;;;;;;5037865;28;20056;-87
2021/08/10 05:40:04;;;;;;;21.07;18.87;;;33.00;51.00;;;;;;5034267;28;20026;-89
2021/08/10 05:42:30;;;;;;;27.92;18.05;;;32.20;52.30;;;;;;5007327;28;20029;-90
2021/08/10 05:44:56;;;;;;;28.23;18.73;;;31.70;53.60;;;;;;5035849;28;20669;-89
2021/08/10 05:47:21;;;;;;;22.97;16.17;;;31.40;54.50;;;;;;5019645;28;20021;-89
2021/08/10 05:49:47;;;;;;;21.67;18.30;;;31.90;54.00;;;;;;5027647;28;20021;-90
2021/08/10 05:52:14;;;;;;;27.73;19.23;;;32.90;52.30;;;;;;5031876;28;20018;-90
2021/08/10 05:54:40;;;;;;;27.05;17.20;;;33.50;51.20;;;;;;5034466;28;20081;-90
2021/08/10 05:57:06;;;;;;;22.10;16.77;;;34.60;49.90;;;;;;5024396;28;20053;-89
2021/08/10 05:59:32;;;;;;;22.70;15.67;;;35.80;47.10;;;;;;5019251;28;20101;-90
2021/08/10 06:01:59;;;;;;;31.07;16.77;;;35.80;45.90;;;;;;5017387;28;20269;-92
2021/08/10 06:04:25;;;;;;;;;;;35.50;45.90;;;;;;5021337;28;20105;-89
2021/08/10 06:06:51;;;;;;;22.73;17.25;;;34.90;47.60;;;;;;5028840;28;19910;-89
2021/08/10 06:09:17;;;;;;;23.50;18.10;;;34.00;48.20;;;;;;5007848;28;20101;-89
2021/08/10 06:11:43;;;;;;;24.43;17.83;;;33.70;49.20;;;;;;5026340;28;20022;-90
2021/08/10 06:14:09;;;;;;;24.90;16.27;;;34.30;48.90;;;;;;5005084;28;20042;-91
2021/08/10 06:16:35;;;;;;;26.23;17.42;;;35.70;47.20;;;;;;5003805;28;20263;-87
2021/08/10 06:19:02;;;;;;;24.07;14.90;;;37.60;44.80;;;;;;5024930;28;20160;-92
2021/08/10 06:21:29;;;;;;;23.27;15.10;;;37.70;43.60;;;;;;5015032;28;20495;-87
2021/08/10 06:23:55;;;;;;;22.33;15.15;;;;;;;;;;5015313;28;20033;-90
2021/08/10 06:26:21;;;;;;;24.55;13.68;;;39.40;41.10;;;;;;5028624;28;20048;-88
2021/08/10 06:28:48;;;;;;;23.73;14.90;;;39.30;39.90;;;;;;5024184;28;20033;-87
2021/08/10 06:31:14;;;;;;;17.08;13.90;;;39.30;39.40;;;;;;5033562;28;20030;-87
2021/08/10 06:33:39;;;;;;;22.10;14.57;;;38.10;39.60;;;;;;5026728;28;20025;-89
2021/08/10 06:36:06;;;;;;;22.23;14.20;;;36.80;41.30;;;;;;5027619;28;20113;-85
2021/08/10 06:38:32;;;;;;;23.35;13.80;;;36.00;43.00;;;;;;5038110;28;20130;-89
2021/08/10 06:40:58;;;;;;;16.92;13.18;;;35.50;43.20;;;;;;5024925;28;20027;-90
2021/08/10 06:43:24;;;;;;;18.42;12.20;;;35.40;43.90;;;;;;5025963;28;20041;-84
2021/08/10 06:45:50;;;;;;;24.27;15.30;;;35.10;44.50;;;;;;5031569;28;20034;-85
2021/08/10 06:48:16;;;;;;;18.50;14.73;;;34.20;45.40;;;;;;5034259;28;20052;-84
2021/08/10 06:50:43;;;;;;;19.00;13.30;;;33.60;46.50;;;;;;5039543;28;20022;-87
2021/08/10 06:53:30;;;;;;;20.23;12.60;;;33.30;47.10;;;;;;5025256;28;20029;-91
2021/08/10 06:56:04;;;;;;;23.02;12.05;;;33.80;46.00;;;;;;5006373;28;20014;-92
2021/08/10 06:58:36;;;;;;;23.77;12.48;;;34.80;44.30;;;;;;5023029;28;20060;-92
2021/08/10 07:01:02;;;;;;;22.33;12.80;;;35.50;43.50;;;;;;5045046;28;20045;-89
2021/08/10 07:03:27;;;;;;;16.70;11.63;;;35.20;41.70;;;;;;5016149;28;20071;-92
2021/08/10 07:05:53;;;;;;;19.03;11.70;;;34.40;43.00;;;;;;5047475;28;20033;-92
2021/08/10 07:08:19;;;;;;;20.47;12.50;;;33.40;44.20;;;;;;5025225;28;20065;-90
2021/08/10 07:10:45;;;;;;;17.50;11.10;;;33.00;45.00;;;;;;5037804;28;20044;-91
2021/08/10 07:13:11;;;;;;;23.47;11.50;;;34.00;44.80;;;;;;5020109;28;20080;-92
2021/08/10 07:15:37;;;;;;;15.20;10.67;;;35.50;42.40;;;;;;5020632;28;20127;-89
2021/08/10 07:18:03;;;;;;;20.73;10.82;;;35.90;40.30;;;;;;5020675;28;20731;-90
2021/08/10 07:20:29;;;;;;;16.70;9.95;;;35.80;40.00;;;;;;5031251;28;20064;-89
2021/08/10 07:22:55;;;;;;;24.42;11.35;;;35.20;40.00;;;;;;5041891;28;20017;-90
2021/08/10 07:25:22;;;;;;;18.70;10.52;;;34.70;41.00;;;;;;5010813;28;20546;-91
2021/08/10 07:27:48;;;;;;;19.30;10.68;;;34.40;41.80;;;;;;5052842;28;20017;-92
2021/08/10 07:30:14;;;;;;;24.52;11.30;;;34.10;42.30;;;;;;5046863;28;20021;-90
2021/08/10 07:32:40;;;;;;;25.58;11.60;;;33.90;42.80;;;;;;5052112;28;20046;-89
2021/08/10 07:35:07;;;;;;;19.30;11.30;;;33.50;43.50;;;;;;5033217;28;20030;-93
2021/08/10 07:37:38;;;;;;;15.50;10.52;;;33.30;44.10;;;;;;5027760;28;20021;-91
2021/08/10 07:40:05;;;;;;;23.15;10.63;;;33.80;44.40;;;;;;5024154;28;20022;-92
2021/08/10 07:42:31;;;;;;;19.55;11.25;;;34.30;43.40;;;;;;5004816;28;20036;-91
2021/08/10 07:44:57;;;;;;;25.10;10.30;;;35.00;42.50;;;;;;5010487;28;20140;-92
2021/08/10 07:47:22;;;;;;;18.25;10.48;;;36.50;41.00;;;;;;5026062;28;20053;-91
2021/08/10 07:49:48;;;;;;;18.25;8.98;;;38.00;39.40;;;;;;5012323;28;20026;-88
2021/08/10 07:52:14;;;;;;;18.90;8.40;;;38.70;37.00;;;;;;5049775;28;20026;-88
2021/08/10 07:54:41;;;;;;;12.18;8.35;;;38.80;36.50;;;;;;5048232;28;20366;-90
2021/08/10 07:57:08;;;;;;;15.73;8.38;;;38.60;35.80;;;;;;5020091;28;20030;-92
2021/08/10 07:59:34;;;;;;;14.57;7.97;;;38.50;36.30;;;;;;5029598;28;20025;-91
2021/08/10 08:02:00;;;;;;;19.83;8.68;;;38.90;36.20;;;;;;5049548;28;20029;-89
2021/08/10 08:04:28;;;;;;;12.88;8.40;;;38.90;36.10;;;;;;5048811;28;20033;-90
2021/08/10 08:06:53;;;;;;;12.55;8.30;;;38.50;35.90;;;;;;5050773;28;20044;-89
2021/08/10 08:09:19;;;;;;;11.25;7.70;;;38.50;36.50;;;;;;5033734;28;20096;-90
2021/08/10 08:11:45;;;;;;;10.75;7.25;;;38.80;36.20;;;;;;5036850;28;20052;-90
2021/08/10 08:14:12;;;;;;;17.80;7.65;;;39.20;35.60;;;;;;5019528;28;20126;-90
2021/08/10 08:16:37;;;;;;;9.13;7.10;;;39.40;35.20;;;;;;5037136;28;20099;-88
2021/08/10 08:19:03;;;;;;;10.48;6.35;;;39.70;34.60;;;;;;5020121;28;20486;-89
2021/08/10 08:21:29;;;;;;;15.77;7.20;;;39.10;34.10;;;;;;5032431;28;20080;-90
2021/08/10 08:23:55;;;;;;;14.32;7.18;;;39.10;34.70;;;;;;5029558;28;20025;-89
2021/08/10 08:26:22;;;;;;;12.35;7.80;;;39.40;34.30;;;;;;5054793;28;20025;-90
2021/08/10 08:28:48;;;;;;;16.88;6.30;;;39.50;34.90;;;;;;5020878;28;20025;-89
2021/08/10 08:31:14;;;;;;;;;;;39.80;34.70;;;;;;5039639;28;20030;-90
2021/08/10 08:33:40;;;;;;;11.38;7.00;;;39.40;34.30;;;;;;5037899;28;19909;-89
2021/08/10 08:36:06;;;;;;;12.98;7.38;;;39.40;34.40;;;;;;5037072;28;20148;-90
2021/08/10 08:38:31;;;;;;;11.10;6.78;;;38.50;34.80;;;;;;5020179;28;20053;-90
2021/08/10 08:40:57;;;;;;;12.52;6.82;;;38.20;35.80;;;;;;5026275;28;20025;-91
2021/08/10 08:43:23;;;;;;;9.88;6.70;;;38.40;36.10;;;;;;5008589;28;20030;-88
2021/08/10 08:45:50;;;;;;;11.73;6.68;;;39.40;34.90;;;;;;5036360;28;20037;-90
2021/08/10 08:48:16;;;;;;;;;;;39.60;34.70;;;;;;5042728;28;20068;-89
2021/08/10 08:50:49;;;;;;;13.23;7.28;;;40.30;35.20;;;;;;5024345;28;19905;-88
2021/08/10 08:53:15;;;;;;;15.98;8.30;;;39.30;34.10;;;;;;5036594;28;20029;-90
2021/08/10 08:55:43;;;;;;;13.88;7.75;;;38.80;35.30;;;;;;5010751;28;20054;-90
2021/08/10 08:58:09;;;;;;;13.90;7.82;;;39.40;35.00;;;;;;5020673;28;20040;-90
2021/08/10 09:00:35;;;;;;;16.95;8.40;;;39.80;34.70;;;;;;5009156;28;20057;-90
2021/08/10 09:03:04;;;;;;;15.40;9.43;;;39.30;34.70;;;;;;5020660;28;20017;-90
2021/08/10 09:05:32;;;;;;;14.82;8.52;;;39.00;35.30;;;;;;5018469;28;20048;-90
2021/08/10 09:07:59;;;;;;;21.65;9.45;;;38.30;35.60;;;;;;5040966;28;20028;-92
2021/08/10 09:10:31;;;;;;;19.25;8.60;;;37.80;36.90;;;;;;5041474;28;20021;-94
2021/08/10 09:12:58;;;;;;;16.02;9.18;;;38.50;36.60;;;;;;5036715;28;20028;-91
2021/08/10 09:15:36;;;;;;;13.25;7.78;;;39.30;35.50;;;;;;5017189;28;20133;-89
2021/08/10 09:18:10;;;;;;;15.88;8.82;;;39.40;35.10;;;;;;5033791;28;20018;-91
2021/08/10 09:20:36;;;;;;;18.50;8.75;;;38.40;35.90;;;;;;5022294;28;20025;-90
2021/08/10 09:23:02;;;;;;;16.52;9.02;;;38.20;36.10;;;;;;5016012;28;20018;-91
2021/08/10 09:25:33;;;;;;;20.73;9.18;;;38.60;36.50;;;;;;5031435;28;20049;-91
2021/08/10 09:28:17;;;;;;;13.55;8.02;;;39.10;35.90;;;;;;5019239;28;20036;-92
2021/08/10 09:30:43;;;;;;;20.73;8.60;;;39.00;35.50;;;;;;5019276;28;20022;-88
2021/08/10 09:33:09;;;;;;;17.30;9.93;;;38.10;36.20;;;;;;5000974;28;20133;-88
2021/08/10 09:35:38;;;;;;;16.65;9.90;;;37.20;37.40;;;;;;5024109;28;20053;-89
2021/08/10 09:38:12;;;;;;;17.98;10.30;;;36.10;38.70;;;;;;5042202;28;20056;-91
2021/08/10 09:40:45;;;;;;;21.58;9.90;;;35.20;40.30;;;;;;5026085;28;20129;-92
2021/08/10 09:43:25;;;;;;;14.90;9.48;;;34.60;41.80;;;;;;5038192;28;20109;-93
2021/08/10 09:46:15;;;;;;;16.77;10.13;;;34.50;42.60;;;;;;5021039;28;20041;-93
2021/08/10 09:48:50;;;;;;;16.75;10.60;;;34.50;42.90;;;;;;5021536;28;20029;-94
2021/08/10 09:51:23;;;;;;;22.33;11.85;;;34.10;43.10;;;;;;5023717;28;20047;-90
2021/08/10 09:53:59;;;;;;;16.88;10.82;;;33.70;44.00;;;;;;5013922;28;20021;-92
2021/08/10 09:56:47;;;;;;;19.38;13.90;;;34.30;44.00;;;;;;5042893;28;20017;-92
2021/08/10 09:59:13;;;;;;;21.50;10.90;;;34.90;43.30;;;;;;5015266;28;20074;-92
2021/08/10 10:01:42;;;;;;;19.70;10.35;;;35.20;42.70;;;;;;5026055;28;20056;-91
2021/08/10 10:04:30;;;;;;;16.60;10.13;;;35.40;42.50;;;;;;5007721;28;20026;-90
2021/08/10 10:06:58;;;;;;;21.83;10.32;;;35.10;42.50;;;;;;5009016;28;20026;-91
2021/08/10 10:09:36;;;;;;;19.60;10.13;;;34.80;43.50;;;;;;5036764;28;20021;-91
2021/08/10 10:12:04;;;;;;;21.98;10.88;;;35.00;43.30;;;;;;5026344;28;20049;-93
2021/08/10 10:14:31;;;;;;;17.17;9.88;;;35.60;42.90;;;;;;5023172;28;20045;-91
2021/08/10 10:16:58;;;;;;;20.25;10.82;;;35.80;41.70;;;;;;5007162;28;20073;-91
2021/08/10 10:19:24;;;;;;;9.82;8.63;;;36.10;41.70;;;;;;5026986;28;20029;-90
2021/08/10 10:21:57;;;;;;;18.10;10.45;;;36.00;41.60;;;;;;5024368;28;20521;-92
2021/08/10 10:24:26;;;;;;;18.75;9.93;;;35.70;42.30;;;;;;5014419;28;20040;-90
2021/08/10 10:27:03;;;;;;;15.18;10.18;;;35.40;42.50;;;;;;5043060;28;20033;-91
2021/08/10 10:29:30;;;;;;;15.90;10.15;;;35.10;42.40;;;;;;5013243;28;20029;-91
2021/08/10 10:31:57;;;;;;;21.35;10.23;;;34.70;43.30;;;;;;5056555;28;20040;-86
2021/08/10 10:34:24;;;;;;;23.20;10.43;;;34.50;43.90;;;;;;5041769;28;20049;-92
2021/08/10 10:36:52;;;;;;;16.83;10.10;;;34.40;43.80;;;;;;5032889;28;20107;-93
2021/08/10 10:39:45;;;;;;;20.42;11.40;;;34.00;44.40;;;;;;5032188;28;20051;-90
2021/08/10 10:42:15;;;;;;;22.00;10.25;;;33.50;45.50;;;;;;5019333;28;20033;-92
2021/08/10 10:44:45;;;;;;;20.27;9.52;;;33.30;46.30;;;;;;5032733;28;20025;-90
2021/08/10 10:47:21;;;;;;;14.50;8.77;;;33.10;45.00;;;;;;5026619;28;20018;-92
2021/08/10 10:49:48;;;;;;;15.57;10.00;;;33.10;45.10;;;;;;5045156;28;20029;-93
2021/08/10 10:52:18;;;;;;;20.33;9.52;;;32.80;45.70;;;;;;5020274;28;20022;-91
2021/08/10 10:54:45;;;;;;;13.90;8.80;;;32.50;46.30;;;;;;5047904;28;20082;-91
2021/08/10 10:57:29;;;;;;;16.95;9.95;;;32.20;46.50;;;;;;5044924;28;20367;-91
2021/08/10 10:59:58;;;;;;;14.90;9.43;;;31.90;46.80;;;;;;5045604;28;20029;-92
2021/08/10 11:02:26;;;;;;;16.10;9.55;;;31.50;47.90;;;;;;5030529;28;20045;-92
2021/08/10 11:05:12;;;;;;;17.85;9.35;;;31.10;48.40;;;;;;5041846;28;20044;-92
2021/08/10 11:07:40;;;;;;;15.57;9.77;;;30.60;49.40;;;;;;5023779;28;20102;-92
2021/08/10 11:10:30;;;;;;;17.50;10.40;;;30.00;50.70;;;;;;5042602;28;20482;-93
2021/08/10 11:12:56;;;;;;;20.65;10.57;;;29.50;51.90;;;;;;5026320;28;20034;-91
2021/08/10 11:15:43;;;;;;;22.63;11.27;;;29.10;53.50;;;;;;5010897;28;20046;-90
2021/08/10 11:18:09;;;;;;;22.35;10.90;;;29.10;54.80;;;;;;5029297;28;20057;-90
2021/08/10 11:20:36;;;;;;;17.15;11.43;;;28.80;56.40;;;;;;5028123;28;20022;-91
2021/08/10 11:23:26;;;;;;;17.70;11.35;;;27.80;59.00;;;;;;5031703;28;20026;-91
2021/08/10 11:26:17;;;;;;;21.17;13.82;;;27.10;60.80;;;;;;5005193;28;20176;-89
2021/08/10 11:28:43;;;;;;;21.52;12.90;;;26.80;63.70;;;;;;4958920;29;20042;-92
2021/08/10 11:31:41;;;;;;;15.93;12.38;;;26.80;65.10;;;;;;4967785;29;20063;-91
2021/08/10 11:34:30;;;;;;;17.05;11.77;;;27.00;62.80;;;;;;4932993;29;20032;-92
2021/08/10 11:37:24;;;;;;;20.30;13.02;;;27.20;61.80;;;;;;4934529;29;20038;-91
2021/08/10 11:40:03;;;;;;;15.63;11.75;;;27.40;63.10;;;;;;4957263;28;20025;-88
2021/08/10 11:42:29;;;;;;;19.88;12.48;;;27.50;62.60;;;;;;4959988;29;20028;-91
2021/08/10 11:44:56;;;;;;;19.95;12.73;;;27.50;62.70;;;;;;4955354;29;20058;-93
2021/08/10 11:47:22;;;;;;;19.83;13.07;;;27.60;62.40;;;;;;4966725;29;20438;-92
2021/08/10 11:49:55;;;;;;;19.80;13.13;;;27.60;62.80;;;;;;4937385;29;20054;-91
2021/08/10 11:52:23;;;;;;;22.55;13.40;;;27.60;63.50;;;;;;4947631;29;20111;-91
2021/08/10 11:54:57;;;;;;;20.88;13.98;;;27.70;63.60;;;;;;4952800;29;20201;-91
2021/08/10 11:57:24;;;;;;;21.60;13.23;;;27.80;63.60;;;;;;4944346;29;20043;-93
2021/08/10 12:00:13;;;;;;;21.48;12.80;;;27.90;64.10;;;;;;4898289;29;20115;-92
2021/08/10 12:02:45;;;;;;;16.58;11.95;;;28.00;63.30;;;;;;4949688;29;20031;-91
2021/08/10 12:05:12;;;;;;;24.63;12.98;;;27.90;62.60;;;;;;4974571;28;20062;-93
2021/08/10 12:07:56;;;;;;;22.80;13.27;;;27.90;63.50;;;;;;5020168;28;20159;-93
2021/08/10 12:10:37;;;;;;;20.15;12.88;;;27.90;63.80;;;;;;5022681;28;20030;-92
2021/08/10 12:13:20;;;;;;;23.05;14.60;;;27.90;64.00;;;;;;5022177;28;20038;-91
2021/08/10 12:15:47;;;;;;;17.80;12.65;;;27.80;64.60;;;;;;5009554;28;20511;-91
2021/08/10 12:18:16;;;;;;;21.05;13.32;;;27.70;65.30;;;;;;5000165;28;20034;-92
2021/08/10 12:21:05;;;;;;;22.33;15.02;;;27.70;66.40;;;;;;5013338;28;20125;-93
2021/08/10 12:23:49;;;;;;;16.60;12.80;;;27.70;67.20;;;;;;5020912;28;20035;-92
2021/08/10 12:26:31;;;;;;;19.55;14.63;;;27.70;67.30;;;;;;5018036;28;20030;-90
2021/08/10 12:29:00;;;;;;;20.98;15.48;;;27.70;67.90;;;;;;5001616;28;20081;-91
2021/08/10 12:31:30;;;;;;;22.10;14.63;;;27.80;67.60;;;;;;5015373;28;20022;-94
2021/08/10 12:33:58;;;;;;;21.33;13.80;;;27.80;68.00;;;;;;5023303;28;20033;-94
2021/08/10 12:36:25;;;;;;;20.73;13.63;;;27.90;68.10;;;;;;5021060;28;20116;-93
2021/08/10 12:38:52;;;;;;;19.23;13.07;;;28.00;66.90;;;;;;5018132;28;20033;-92
2021/08/10 12:41:25;;;;;;;20.77;13.15;;;28.00;65.00;;;;;;5001178;28;20089;-91